createdAt,value
2019-05-05T00:00:15.993Z,4.10
2019-05-05T00:02:49.314Z,4.07
2019-05-05T00:05:28.710Z,4.17
2019-05-05T00:07:57.398Z,4.50
2019-05-05T00:10:45.999Z,4.40
2019-05-05T00:13:18.738Z,4.37
2019-05-05T00:16:05.750Z,4.63
2019-05-05T00:18:34.687Z,4.30
2019-05-05T00:21:04.611Z,4.30
2019-05-05T00:23:34.539Z,4.43
2019-05-05T00:26:04.376Z,4.67
2019-05-05T00:28:35.262Z,4.50
2019-05-05T00:31:04.688Z,4.83
2019-05-05T00:33:34.389Z,5.00
2019-05-05T00:36:07.043Z,5.47
2019-05-05T00:38:35.199Z,5.67
2019-05-05T00:41:05.459Z,5.70
2019-05-05T00:43:34.637Z,5.43
2019-05-05T00:46:07.617Z,5.77
2019-05-05T00:48:37.953Z,4.90
2019-05-05T00:51:06.776Z,5.47
2019-05-05T00:53:35.490Z,5.60
2019-05-05T00:56:05.087Z,5.63
2019-05-05T00:58:35.566Z,5.80
2019-05-05T01:01:05.921Z,5.80
2019-05-05T01:03:34.857Z,6.00
2019-05-05T01:06:09.100Z,5.93
2019-05-05T01:08:38.122Z,6.10
2019-05-05T01:11:06.726Z,5.73
2019-05-05T01:13:35.440Z,6.23
2019-05-05T01:16:04.924Z,6.13
2019-05-05T01:18:35.114Z,5.97
2019-05-05T01:21:04.614Z,6.53
2019-05-05T01:23:34.927Z,6.00
2019-05-05T01:26:05.050Z,5.73
2019-05-05T01:28:35.552Z,6.50
2019-05-05T01:31:06.105Z,5.90
2019-05-05T01:33:36.418Z,6.60
2019-05-05T01:36:05.393Z,6.20
2019-05-05T01:38:35.793Z,6.60
2019-05-05T01:41:08.790Z,6.20
2019-05-05T01:43:37.464Z,6.43
2019-05-05T01:46:06.447Z,6.37
2019-05-05T01:48:35.206Z,6.47
2019-05-05T01:51:05.190Z,6.40
2019-05-05T01:53:34.942Z,6.47
2019-05-05T01:56:04.900Z,6.50
2019-05-05T01:58:34.913Z,6.43
2019-05-05T02:01:05.040Z,6.07
2019-05-05T02:03:35.020Z,6.30
2019-05-05T02:06:05.253Z,6.40
2019-05-05T02:08:34.892Z,6.53
2019-05-05T02:11:05.152Z,6.90
2019-05-05T02:13:34.649Z,6.80
2019-05-05T02:16:04.628Z,6.53
2019-05-05T02:18:34.550Z,7.10
2019-05-05T02:21:07.573Z,7.50
2019-05-05T02:23:37.128Z,7.73
2019-05-05T02:26:07.274Z,7.00
2019-05-05T02:28:40.481Z,6.90
2019-05-05T02:31:26.027Z,7.30
2019-05-05T02:33:56.940Z,7.30
2019-05-05T02:36:25.755Z,7.27
2019-05-05T02:38:56.713Z,7.30
2019-05-05T02:41:25.738Z,7.43
2019-05-05T02:43:55.982Z,7.87
2019-05-05T02:46:36.445Z,7.17
2019-05-05T02:49:05.715Z,6.87
2019-05-05T02:51:36.118Z,7.53
2019-05-05T02:54:05.655Z,7.30
2019-05-05T02:56:38.894Z,7.20
2019-05-05T02:59:10.169Z,7.97
2019-05-05T03:01:41.416Z,7.93
2019-05-05T03:04:10.832Z,7.40
2019-05-05T03:06:43.719Z,7.47
2019-05-05T03:09:14.622Z,7.23
2019-05-05T03:11:45.598Z,7.50
2019-05-05T03:14:15.617Z,7.20
2019-05-05T03:16:44.461Z,8.00
2019-05-05T03:19:14.216Z,6.73
2019-05-05T03:21:44.187Z,6.80
2019-05-05T03:24:14.316Z,7.37
2019-05-05T03:26:44.446Z,7.67
2019-05-05T03:29:17.614Z,7.47
2019-05-05T03:31:47.356Z,7.40
2019-05-05T03:34:16.726Z,7.30
2019-05-05T03:36:46.500Z,8.13
2019-05-05T03:39:17.247Z,7.67
2019-05-05T03:41:47.894Z,7.80
2019-05-05T03:44:24.691Z,8.60
2019-05-05T03:46:54.459Z,8.10
2019-05-05T03:49:24.410Z,8.40
2019-05-05T03:51:54.370Z,8.07
2019-05-05T03:54:23.838Z,8.73
2019-05-05T03:56:54.570Z,8.77
2019-05-05T03:59:24.345Z,7.83
2019-05-05T04:02:07.056Z,8.67
2019-05-05T04:04:37.377Z,9.20
2019-05-05T04:07:06.699Z,9.20
2019-05-05T04:09:35.683Z,9.13
2019-05-05T04:12:04.639Z,9.17
2019-05-05T04:14:34.800Z,9.87
2019-05-05T04:17:14.724Z,9.30
2019-05-05T04:19:45.038Z,9.67
2019-05-05T04:22:13.996Z,9.30
2019-05-05T04:24:43.603Z,9.10
2019-05-05T04:27:14.424Z,10.67
2019-05-05T04:29:43.986Z,9.70
2019-05-05T04:32:13.982Z,9.90
2019-05-05T04:34:43.810Z,10.00
2019-05-05T04:37:14.642Z,10.17
2019-05-05T04:39:44.436Z,10.20
2019-05-05T04:42:14.040Z,10.17
2019-05-05T04:44:44.987Z,9.80
2019-05-05T04:47:15.026Z,9.73
2019-05-05T04:49:47.922Z,10.60
2019-05-05T04:52:18.242Z,10.43
2019-05-05T04:54:48.621Z,10.33
2019-05-05T04:57:17.301Z,10.60
2019-05-05T04:59:48.564Z,10.93
2019-05-05T05:02:19.848Z,10.13
2019-05-05T05:04:50.215Z,10.90
2019-05-05T05:07:19.369Z,11.10
2019-05-05T05:09:47.982Z,10.93
2019-05-05T05:12:16.707Z,10.30
2019-05-05T05:14:45.483Z,11.00
2019-05-05T05:17:15.862Z,11.03
2019-05-05T05:19:44.875Z,11.23
2019-05-05T05:22:13.785Z,10.20
2019-05-05T05:24:44.670Z,10.93
2019-05-05T05:27:13.895Z,11.63
2019-05-05T05:29:43.786Z,10.93
2019-05-05T05:32:12.449Z,9.97
2019-05-05T05:34:41.178Z,10.63
2019-05-05T05:37:09.857Z,10.43
2019-05-05T05:39:46.117Z,10.57
2019-05-05T05:42:14.793Z,11.33
2019-05-05T05:44:48.047Z,10.63
2019-05-05T05:47:27.370Z,10.93
2019-05-05T05:50:00.406Z,11.33
2019-05-05T05:52:29.364Z,10.27
2019-05-05T05:54:58.108Z,10.33
2019-05-05T05:57:27.056Z,10.43
2019-05-05T05:59:55.798Z,10.03
2019-05-05T06:02:24.484Z,9.97
2019-05-05T06:04:53.902Z,10.00
2019-05-05T06:07:24.528Z,10.70
2019-05-05T06:09:54.160Z,10.63
2019-05-05T06:12:24.589Z,10.87
2019-05-05T06:14:53.711Z,11.10
2019-05-05T06:17:23.867Z,10.27
2019-05-05T06:19:53.440Z,9.90
2019-05-05T06:22:29.257Z,10.20
2019-05-05T06:24:54.106Z,9.83
2019-05-05T06:27:23.615Z,9.60
2019-05-05T06:29:54.318Z,9.53
2019-05-05T06:32:23.828Z,9.07
2019-05-05T06:34:53.474Z,8.80
2019-05-05T06:37:23.787Z,9.20
2019-05-05T06:39:54.470Z,9.40
2019-05-05T06:42:36.876Z,8.67
2019-05-05T06:45:09.806Z,8.57
2019-05-05T06:47:39.891Z,8.37
2019-05-05T06:50:08.635Z,8.40
2019-05-05T06:52:44.228Z,8.33
2019-05-05T06:55:08.001Z,8.30
2019-05-05T06:57:36.649Z,8.63
2019-05-05T07:00:06.541Z,8.67
2019-05-05T07:02:35.670Z,8.60
2019-05-05T07:05:05.151Z,8.43
2019-05-05T07:07:34.399Z,8.27
2019-05-05T07:10:04.568Z,8.13
2019-05-05T07:12:34.693Z,8.37
2019-05-05T07:15:05.438Z,8.40
2019-05-05T07:17:34.168Z,8.67
2019-05-05T07:20:04.476Z,8.30
2019-05-05T07:22:34.659Z,8.47
2019-05-05T07:25:04.808Z,8.83
2019-05-05T07:27:33.876Z,8.07
2019-05-05T07:30:04.759Z,8.23
2019-05-05T07:32:33.901Z,8.20
2019-05-05T07:35:14.558Z,8.03
2019-05-05T07:37:43.730Z,8.33
2019-05-05T07:40:14.193Z,8.47
2019-05-05T07:42:44.078Z,7.80
2019-05-05T07:45:22.650Z,7.97
2019-05-05T07:47:43.746Z,7.90
2019-05-05T07:50:26.430Z,8.40
2019-05-05T07:52:43.863Z,8.57
2019-05-05T07:55:14.355Z,8.27
2019-05-05T07:57:43.572Z,8.37
2019-05-05T08:00:14.663Z,8.70
2019-05-05T08:02:43.922Z,8.10
2019-05-05T08:05:14.150Z,7.73
2019-05-05T08:07:44.658Z,7.40
2019-05-05T08:10:13.814Z,8.40
2019-05-05T08:12:43.632Z,7.80
2019-05-05T08:15:14.783Z,7.73
2019-05-05T08:17:51.168Z,7.00
2019-05-05T08:20:23.677Z,7.60
2019-05-05T08:22:53.659Z,7.30
2019-05-05T08:25:36.324Z,7.63
2019-05-05T08:28:04.906Z,7.07
2019-05-05T08:30:44.288Z,7.80
2019-05-05T08:33:14.065Z,8.07
2019-05-05T08:35:44.903Z,6.17
2019-05-05T08:38:13.794Z,6.53
2019-05-05T08:40:43.790Z,6.40
2019-05-05T08:43:13.860Z,6.10
2019-05-05T08:45:44.399Z,6.27
2019-05-05T08:48:14.251Z,6.27
2019-05-05T08:50:43.937Z,6.20
2019-05-05T08:53:13.881Z,5.97
2019-05-05T08:55:44.294Z,5.63
2019-05-05T08:58:14.923Z,6.23
2019-05-05T09:00:44.387Z,6.37
2019-05-05T09:03:13.832Z,5.97
2019-05-05T09:05:43.700Z,5.80
2019-05-05T09:08:13.811Z,6.20
2019-05-05T09:10:44.651Z,6.10
2019-05-05T09:13:14.289Z,6.00
2019-05-05T09:15:44.284Z,6.03
2019-05-05T09:18:14.128Z,6.00
2019-05-05T09:20:44.579Z,4.90
2019-05-05T09:23:14.745Z,5.57
2019-05-05T09:25:48.282Z,5.00
2019-05-05T09:28:34.778Z,5.00
2019-05-05T09:31:04.229Z,5.77
2019-05-05T09:33:33.891Z,5.60
2019-05-05T09:36:04.651Z,5.10
2019-05-05T09:38:34.693Z,5.17
2019-05-05T09:41:03.968Z,5.07
2019-05-05T09:43:34.499Z,6.10
2019-05-05T09:46:03.896Z,5.00
2019-05-05T09:48:33.598Z,5.63
2019-05-05T09:51:04.193Z,5.30
2019-05-05T09:53:34.418Z,5.83
2019-05-05T09:56:04.057Z,5.40
2019-05-05T09:58:34.789Z,4.97
2019-05-05T10:01:05.930Z,5.60
2019-05-05T10:03:34.530Z,5.00
2019-05-05T10:06:05.003Z,4.60
2019-05-05T10:08:34.244Z,5.17
2019-05-05T10:11:04.119Z,5.63
2019-05-05T10:13:33.661Z,5.40
2019-05-05T10:16:04.002Z,5.90
2019-05-05T10:18:35.470Z,6.53
2019-05-05T10:21:04.641Z,6.50
2019-05-05T10:23:35.067Z,6.20
2019-05-05T10:26:05.409Z,6.77
2019-05-05T10:28:34.440Z,5.87
2019-05-05T10:31:04.631Z,5.77
2019-05-05T10:33:36.446Z,5.80
2019-05-05T10:36:05.245Z,5.30
2019-05-05T10:38:35.626Z,4.87
2019-05-05T10:41:04.371Z,5.60
2019-05-05T10:43:34.358Z,5.30
2019-05-05T10:46:05.294Z,5.40
2019-05-05T10:48:34.116Z,5.27
2019-05-05T10:51:04.210Z,5.27
2019-05-05T10:53:33.520Z,5.03
2019-05-05T10:56:04.282Z,4.60
2019-05-05T10:58:33.579Z,4.50
2019-05-05T11:01:04.665Z,4.60
2019-05-05T11:03:34.434Z,4.50
2019-05-05T11:06:04.565Z,4.20
2019-05-05T11:08:34.780Z,4.10
2019-05-05T11:11:04.492Z,3.63
2019-05-05T11:13:34.459Z,3.87
2019-05-05T11:16:03.992Z,3.63
2019-05-05T11:18:34.534Z,3.37
2019-05-05T11:21:04.002Z,3.53
2019-05-05T11:23:34.574Z,3.50
2019-05-05T11:26:03.113Z,3.50
2019-05-05T11:28:33.767Z,3.37
2019-05-05T11:31:04.235Z,3.10
2019-05-05T11:33:34.601Z,3.00
2019-05-05T11:36:17.438Z,3.27
2019-05-05T11:38:46.194Z,2.90
2019-05-05T11:41:15.546Z,2.90
2019-05-05T11:43:44.217Z,3.30
2019-05-05T11:46:14.078Z,3.00
2019-05-05T11:48:43.942Z,2.90
2019-05-05T11:51:14.882Z,2.70
2019-05-05T11:53:44.734Z,3.00
2019-05-05T11:56:14.491Z,3.10
2019-05-05T11:58:44.270Z,2.70
2019-05-05T12:01:13.867Z,3.00
2019-05-05T12:03:44.391Z,2.60
2019-05-05T12:06:14.724Z,2.73
2019-05-05T12:08:45.937Z,2.50
2019-05-05T12:11:15.093Z,2.47
2019-05-05T12:13:44.061Z,2.77
2019-05-05T12:16:14.399Z,2.70
2019-05-05T12:18:44.823Z,2.80
2019-05-05T12:21:13.993Z,2.47
2019-05-05T12:23:44.450Z,2.73
2019-05-05T12:26:24.393Z,2.40
2019-05-05T12:29:00.184Z,2.60
2019-05-05T12:31:30.538Z,2.73
2019-05-05T12:33:59.293Z,2.40
2019-05-05T12:36:27.937Z,2.60
2019-05-05T12:38:56.540Z,2.50
2019-05-05T12:41:25.298Z,3.07
2019-05-05T12:43:54.955Z,2.30
2019-05-05T12:46:41.796Z,2.57
2019-05-05T12:49:13.866Z,2.30
2019-05-05T12:51:43.538Z,2.60
2019-05-05T12:54:14.520Z,2.40
2019-05-05T12:56:44.584Z,2.40
2019-05-05T12:59:15.098Z,2.83
2019-05-05T13:01:44.101Z,2.70
2019-05-05T13:04:14.134Z,2.43
2019-05-05T13:06:44.910Z,2.00
2019-05-05T13:09:14.507Z,2.53
2019-05-05T13:11:43.750Z,2.20
2019-05-05T13:14:14.255Z,2.10
2019-05-05T13:16:52.360Z,2.00
2019-05-05T13:19:15.276Z,2.10
2019-05-05T13:21:51.073Z,2.20
2019-05-05T13:24:21.429Z,2.07
2019-05-05T13:26:55.625Z,2.50
2019-05-05T13:29:24.758Z,1.90
2019-05-05T13:31:54.348Z,2.23
2019-05-05T13:34:23.330Z,2.23
2019-05-05T13:36:52.011Z,2.10
2019-05-05T13:39:20.893Z,1.90
2019-05-05T13:41:49.706Z,1.90
2019-05-05T13:44:24.230Z,2.20
2019-05-05T13:46:53.659Z,2.37
2019-05-05T13:49:24.390Z,2.17
2019-05-05T13:51:54.057Z,2.03
2019-05-05T13:54:24.206Z,2.10
2019-05-05T13:56:53.127Z,2.10
2019-05-05T13:59:21.797Z,2.80
2019-05-05T14:01:50.401Z,2.00
2019-05-05T14:04:19.422Z,2.27
2019-05-05T14:06:49.781Z,1.80
2019-05-05T14:09:18.425Z,1.80
2019-05-05T14:11:47.154Z,2.60
2019-05-05T14:14:16.184Z,1.83
2019-05-05T14:16:44.902Z,1.90
2019-05-05T14:19:14.701Z,1.90
2019-05-05T14:21:44.582Z,1.80
2019-05-05T14:24:18.321Z,1.60
2019-05-05T14:26:46.997Z,1.70
2019-05-05T14:29:34.632Z,1.60
2019-05-05T14:32:03.886Z,1.60
2019-05-05T14:34:34.563Z,1.60
2019-05-05T14:37:11.198Z,1.40
2019-05-05T14:39:40.090Z,1.50
2019-05-05T14:42:09.126Z,1.63
2019-05-05T14:44:38.126Z,1.80
2019-05-05T14:47:06.917Z,2.67
2019-05-05T14:49:35.666Z,1.80
2019-05-05T14:52:04.539Z,1.70
2019-05-05T14:54:34.157Z,1.50
2019-05-05T14:57:04.581Z,1.80
2019-05-05T14:59:34.063Z,1.70
2019-05-05T15:02:06.046Z,1.53
2019-05-05T15:04:36.367Z,1.57
2019-05-05T15:07:23.436Z,1.63
2019-05-05T15:10:10.460Z,1.70
2019-05-05T15:12:44.700Z,1.70
2019-05-05T15:15:14.352Z,1.40
2019-05-05T15:17:43.007Z,1.67
2019-05-05T15:20:13.449Z,1.73
2019-05-05T15:22:43.694Z,1.90
2019-05-05T15:25:13.480Z,2.10
2019-05-05T15:27:42.197Z,1.70
2019-05-05T15:30:11.292Z,1.80
2019-05-05T15:32:39.989Z,1.90
2019-05-05T15:35:09.023Z,2.00
2019-05-05T15:37:37.882Z,1.60
2019-05-05T15:40:07.229Z,1.80
2019-05-05T15:42:35.916Z,1.70
2019-05-05T15:45:05.299Z,2.10
2019-05-05T15:47:34.420Z,1.93
2019-05-05T15:50:05.402Z,2.00
2019-05-05T15:52:35.135Z,2.10
2019-05-05T15:55:06.965Z,1.80
2019-05-05T15:57:35.580Z,2.47
2019-05-05T16:00:07.902Z,2.57
2019-05-05T16:02:36.826Z,2.30
2019-05-05T16:05:09.393Z,2.00
2019-05-05T16:07:38.074Z,2.40
2019-05-05T16:10:08.560Z,2.20
2019-05-05T16:12:39.803Z,2.00
2019-05-05T16:15:17.070Z,2.20
2019-05-05T16:17:59.387Z,2.60
2019-05-05T16:20:35.887Z,2.30
2019-05-05T16:23:18.408Z,2.20
2019-05-05T16:25:47.423Z,2.00
2019-05-05T16:28:16.501Z,2.00
2019-05-05T16:30:45.351Z,2.10
2019-05-05T16:33:14.127Z,2.10
2019-05-05T16:35:43.768Z,2.03
2019-05-05T16:38:14.747Z,2.67
2019-05-05T16:40:44.926Z,2.37
2019-05-05T16:43:16.566Z,2.20
2019-05-05T16:45:44.678Z,2.20
2019-05-05T16:48:13.585Z,1.80
2019-05-05T16:50:44.215Z,2.20
2019-05-05T16:53:31.262Z,1.80
2019-05-05T16:55:59.948Z,1.87
2019-05-05T16:58:28.813Z,2.10
2019-05-05T17:00:57.449Z,3.40
2019-05-05T17:03:26.514Z,6.90
2019-05-05T17:05:57.963Z,4.13
2019-05-05T17:08:25.607Z,3.37
2019-05-05T17:10:56.238Z,2.20
2019-05-05T17:13:26.589Z,4.37
2019-05-05T17:16:04.092Z,3.67
2019-05-05T17:18:51.497Z,2.20
2019-05-05T17:21:27.618Z,3.03
2019-05-05T17:23:56.329Z,1.97
2019-05-05T17:26:24.941Z,1.90
2019-05-05T17:28:54.196Z,1.90
2019-05-05T17:31:24.412Z,1.90
2019-05-05T17:33:53.671Z,2.73
2019-05-05T17:36:24.134Z,1.93
2019-05-05T17:38:54.338Z,2.00
2019-05-05T17:41:41.354Z,1.90
2019-05-05T17:44:11.653Z,1.80
2019-05-05T17:46:44.881Z,1.90
2019-05-05T17:49:15.250Z,1.60
2019-05-05T17:51:49.101Z,1.60
2019-05-05T17:54:19.503Z,1.90
2019-05-05T17:56:48.195Z,2.00
2019-05-05T17:59:16.875Z,1.90
2019-05-05T18:01:45.894Z,1.70
2019-05-05T18:04:14.578Z,2.00
2019-05-05T18:06:51.018Z,1.97
2019-05-05T18:09:38.036Z,2.10
2019-05-05T18:12:17.657Z,2.23
2019-05-05T18:14:47.983Z,2.80
2019-05-05T18:17:16.890Z,3.37
2019-05-05T18:19:45.575Z,3.00
2019-05-05T18:22:14.310Z,3.20
2019-05-05T19:21:25.735Z,4.80
2019-05-05T19:23:54.496Z,4.70
2019-05-05T19:26:24.170Z,4.70
2019-05-05T19:28:54.809Z,4.60
2019-05-05T19:31:23.177Z,4.50
2019-05-05T19:33:55.662Z,4.60
2019-05-05T19:36:22.269Z,4.30
2019-05-05T19:38:50.946Z,5.50
2019-05-05T19:41:19.715Z,5.50
2019-05-05T19:43:55.065Z,5.07
2019-05-05T19:46:26.541Z,5.53
2019-05-05T19:48:57.223Z,5.40
2019-05-05T19:51:25.918Z,5.43
2019-05-05T19:53:55.417Z,5.37
2019-05-05T19:56:24.062Z,5.57
2019-05-05T19:58:59.207Z,5.10
2019-05-05T20:01:34.805Z,5.33
2019-05-05T20:03:53.646Z,5.20
2019-05-05T20:06:23.690Z,5.67
2019-05-05T20:08:53.661Z,5.23
2019-05-05T20:11:24.605Z,5.13
2019-05-05T20:14:04.713Z,5.70
2019-05-05T20:16:27.494Z,5.33
2019-05-05T20:18:56.241Z,5.60
2019-05-05T20:21:24.956Z,6.03
2019-05-05T20:23:53.581Z,5.40
2019-05-05T20:26:23.944Z,5.63
2019-05-05T20:28:55.285Z,5.40
2019-05-05T20:31:23.864Z,5.50
2019-05-05T20:34:09.497Z,5.10
2019-05-05T20:36:56.526Z,5.70
2019-05-05T20:39:25.563Z,5.50
2019-05-05T20:41:54.411Z,5.43
2019-05-05T20:44:24.685Z,5.30
2019-05-05T20:46:53.630Z,5.30
2019-05-05T20:49:23.789Z,5.23
2019-05-05T20:51:52.570Z,5.73
2019-05-05T20:54:21.178Z,5.53
2019-05-05T20:56:50.282Z,5.10
2019-05-05T20:59:28.166Z,5.57
2019-05-05T21:01:49.330Z,5.53
2019-05-05T21:04:18.398Z,5.47
2019-05-05T21:06:47.074Z,5.60
2019-05-05T21:09:16.085Z,5.37
2019-05-05T21:11:44.802Z,5.50
2019-05-05T21:14:14.798Z,5.43
2019-05-05T21:16:44.109Z,5.20
2019-05-05T21:19:14.114Z,5.40
2019-05-05T21:21:44.713Z,5.67
2019-05-05T21:24:13.379Z,6.13
2019-05-05T21:26:53.097Z,6.13
2019-05-05T21:29:23.604Z,5.50
2019-05-05T21:31:52.103Z,5.70
2019-05-05T21:34:20.954Z,5.57
2019-05-05T21:36:49.671Z,5.73
2019-05-05T21:39:18.350Z,5.70
2019-05-05T21:41:47.066Z,5.63
2019-05-05T21:44:15.804Z,5.17
2019-05-05T21:46:44.404Z,5.50
2019-05-05T21:49:13.595Z,5.90
2019-05-05T21:51:44.138Z,5.37
2019-05-05T21:54:17.169Z,6.23
2019-05-05T21:56:53.241Z,5.50
2019-05-05T21:59:23.642Z,5.57
2019-05-05T22:01:52.457Z,5.83
2019-05-05T22:04:21.226Z,6.30
2019-05-05T22:06:49.911Z,6.07
2019-05-05T22:09:18.630Z,5.83
2019-05-05T22:11:47.694Z,6.20
2019-05-05T22:14:16.399Z,6.03
2019-05-05T22:16:45.066Z,6.10
2019-05-05T22:19:14.619Z,6.00
2019-05-05T22:21:45.142Z,5.90
2019-05-05T22:24:16.052Z,5.60
2019-05-05T22:26:45.113Z,5.40
2019-05-05T22:29:16.839Z,6.40
2019-05-05T22:31:44.593Z,5.80
2019-05-05T22:34:14.636Z,5.50
2019-05-05T22:36:44.873Z,4.73
2019-05-05T22:39:16.551Z,5.80
2019-05-05T22:41:44.745Z,5.40
2019-05-05T22:44:14.058Z,5.33
2019-05-05T22:46:43.072Z,5.33
2019-05-05T22:49:14.600Z,5.70
2019-05-05T22:51:44.697Z,5.30
2019-05-05T22:54:14.930Z,5.37
2019-05-05T22:56:44.797Z,5.80
2019-05-05T22:59:13.980Z,5.53
2019-05-05T23:01:42.658Z,5.40
2019-05-05T23:04:18.985Z,6.10
2019-05-05T23:07:03.674Z,4.90
2019-05-05T23:09:31.750Z,5.57
2019-05-05T23:12:00.438Z,5.40
2019-05-05T23:14:29.416Z,5.30
2019-05-05T23:17:05.489Z,5.80
2019-05-05T23:19:38.266Z,5.27
2019-05-05T23:22:08.584Z,5.37
2019-05-05T23:24:51.257Z,5.03
2019-05-05T23:27:37.945Z,5.33
2019-05-05T23:30:08.054Z,5.57
2019-05-05T23:32:36.735Z,5.50
2019-05-05T23:35:05.934Z,5.83
2019-05-05T23:37:34.616Z,5.57
2019-05-05T23:40:04.319Z,5.63
2019-05-05T23:42:33.802Z,5.77
2019-05-05T23:45:04.423Z,5.70
2019-05-05T23:47:34.543Z,5.60
2019-05-05T23:50:04.565Z,5.30
2019-05-05T23:52:34.961Z,6.17
2019-05-05T23:55:06.473Z,6.17
2019-05-05T23:57:35.154Z,6.17
